createdAt,value
2023-05-10T00:00:42.572Z,98171.77
2023-05-10T00:03:09.738Z,98168.54
2023-05-10T00:05:36.564Z,98164.56
2023-05-10T00:08:03.334Z,98162.39
2023-05-10T00:10:30.184Z,98161.05
2023-05-10T00:12:57.264Z,98161.38
2023-05-10T00:15:24.115Z,98156.95
2023-05-10T00:17:51.071Z,98155.20
2023-05-10T00:20:18.211Z,98159.34
2023-05-10T00:22:45.421Z,98154.70
2023-05-10T00:25:12.261Z,98158.45
2023-05-10T00:27:39.052Z,98153.35
2023-05-10T00:30:07.406Z,98155.73
2023-05-10T00:32:35.708Z,98154.58
2023-05-10T00:35:02.588Z,98154.40
2023-05-10T00:37:29.350Z,98151.20
2023-05-10T00:39:56.110Z,98153.06
2023-05-10T00:42:23.354Z,98151.40
2023-05-10T00:44:52.319Z,98149.36
2023-05-10T00:47:19.094Z,98150.52
2023-05-10T00:49:46.106Z,98150.10
2023-05-10T00:52:12.853Z,98148.84
2023-05-10T00:54:39.625Z,98149.52
2023-05-10T00:57:06.504Z,98146.90
2023-05-10T00:59:33.581Z,98146.58
2023-05-10T01:02:00.646Z,98146.87
2023-05-10T01:04:27.811Z,98145.76
2023-05-10T01:06:54.909Z,98145.36
2023-05-10T01:09:22.469Z,98143.14
2023-05-10T01:11:49.259Z,98140.30
2023-05-10T01:14:16.324Z,98139.52
2023-05-10T01:16:43.074Z,98140.21
2023-05-10T01:19:18.388Z,98137.09
2023-05-10T01:22:05.134Z,98138.23
2023-05-10T01:24:59.593Z,98138.23
2023-05-10T01:27:42.782Z,98143.15
2023-05-10T01:30:36.524Z,98143.48
2023-05-10T01:33:29.971Z,98142.48
2023-05-10T01:36:04.711Z,98139.05
2023-05-10T01:38:51.725Z,98138.23
2023-05-10T01:41:19.866Z,98134.84
2023-05-10T01:44:39.734Z,98131.80
2023-05-10T01:47:12.195Z,98130.17
2023-05-10T01:49:47.628Z,98128.64
2023-05-10T01:52:15.713Z,98123.48
2023-05-10T01:54:44.428Z,98124.80
2023-05-10T01:57:13.255Z,98124.69
2023-05-10T01:59:42.643Z,98124.36
2023-05-10T02:02:13.248Z,98125.73
2023-05-10T02:04:40.711Z,98126.63
2023-05-10T02:07:07.974Z,98124.52
2023-05-10T02:09:34.827Z,98124.10
2023-05-10T02:12:03.648Z,98119.38
2023-05-10T02:14:31.989Z,98121.63
2023-05-10T02:16:59.834Z,98119.10
2023-05-10T02:19:29.067Z,98119.95
2023-05-10T02:21:57.321Z,98117.82
2023-05-10T02:24:24.186Z,98117.43
2023-05-10T02:26:51.024Z,98111.92
2023-05-10T02:29:17.964Z,98116.70
2023-05-10T02:31:44.855Z,98111.34
2023-05-10T02:34:11.774Z,98113.97
2023-05-10T02:36:39.346Z,98110.91
2023-05-10T02:39:10.467Z,98115.30
2023-05-10T02:41:37.211Z,98114.71
2023-05-10T02:44:04.000Z,98114.59
2023-05-10T02:46:31.313Z,98110.55
2023-05-10T02:48:58.335Z,98110.30
2023-05-10T02:51:26.837Z,98108.51
2023-05-10T02:53:54.488Z,98102.69
2023-05-10T02:56:26.159Z,98102.66
2023-05-10T02:58:53.596Z,98107.64
2023-05-10T03:01:20.384Z,98108.08
2023-05-10T03:03:47.180Z,98108.36
2023-05-10T03:06:13.928Z,98108.52
2023-05-10T03:08:40.891Z,98106.66
2023-05-10T03:11:14.172Z,98103.21
2023-05-10T03:14:03.123Z,98105.22
2023-05-10T03:16:34.484Z,98105.73
2023-05-10T03:19:28.962Z,98101.44
2023-05-10T03:21:56.293Z,98102.52
2023-05-10T03:24:24.345Z,98100.21
2023-05-10T03:26:51.570Z,98099.19
2023-05-10T03:29:18.497Z,98105.02
2023-05-10T03:31:45.411Z,98100.73
2023-05-10T03:34:12.337Z,98097.94
2023-05-10T03:36:39.094Z,98099.73
2023-05-10T03:39:06.038Z,98095.17
2023-05-10T03:41:34.074Z,98095.45
2023-05-10T03:44:01.148Z,98095.00
2023-05-10T03:46:29.148Z,98094.31
2023-05-10T03:48:56.350Z,98096.77
2023-05-10T03:51:25.242Z,98090.31
2023-05-10T03:53:52.234Z,98089.83
2023-05-10T03:56:19.508Z,98091.80
2023-05-10T03:58:46.273Z,98089.86
2023-05-10T04:01:13.101Z,98086.67
2023-05-10T04:03:40.095Z,98083.66
2023-05-10T04:06:09.424Z,98084.81
2023-05-10T04:08:36.694Z,98090.66
2023-05-10T04:11:11.237Z,98091.58
2023-05-10T04:13:38.257Z,98091.90
2023-05-10T04:16:05.865Z,98092.62
2023-05-10T04:18:33.062Z,98095.27
2023-05-10T04:20:59.829Z,98093.14
2023-05-10T04:23:28.155Z,98096.00
2023-05-10T04:26:00.933Z,98094.57
2023-05-10T04:28:28.283Z,98094.69
2023-05-10T04:31:02.173Z,98095.42
2023-05-10T04:33:29.162Z,98099.30
2023-05-10T04:35:56.043Z,98099.96
2023-05-10T04:38:22.801Z,98095.06
2023-05-10T04:40:49.657Z,98099.89
2023-05-10T04:43:16.486Z,98100.36
2023-05-10T04:45:43.308Z,98101.59
2023-05-10T04:48:10.520Z,98103.48
2023-05-10T04:50:37.666Z,98100.36
2023-05-10T04:53:04.553Z,98102.29
2023-05-10T04:55:31.334Z,98100.46
2023-05-10T04:57:58.305Z,98097.75
2023-05-10T05:00:25.764Z,98098.73
2023-05-10T05:02:52.739Z,98097.61
2023-05-10T05:05:20.128Z,98095.55
2023-05-10T05:07:46.912Z,98098.44
2023-05-10T05:10:13.790Z,98092.89
2023-05-10T05:12:40.838Z,98091.55
2023-05-10T05:15:10.277Z,98091.99
2023-05-10T05:17:37.423Z,98090.09
2023-05-10T05:20:04.867Z,98087.73
2023-05-10T05:22:31.588Z,98092.07
2023-05-10T05:24:59.319Z,98093.00
2023-05-10T05:27:27.389Z,98096.58
2023-05-10T05:29:57.834Z,98098.42
2023-05-10T05:32:25.291Z,98091.64
2023-05-10T05:34:52.544Z,98088.20
2023-05-10T05:37:20.470Z,98090.02
2023-05-10T05:41:32.700Z,98089.85
2023-05-10T05:43:59.853Z,98089.74
2023-05-10T05:46:26.965Z,98092.20
2023-05-10T05:48:54.039Z,98097.59
2023-05-10T05:51:21.362Z,98096.91
2023-05-10T05:53:48.213Z,98095.45
2023-05-10T05:56:15.140Z,98098.25
2023-05-10T05:58:41.967Z,98097.87
2023-05-10T06:01:08.730Z,98098.84
2023-05-10T06:03:35.711Z,98100.02
2023-05-10T06:06:02.808Z,98099.39
2023-05-10T06:08:29.638Z,98096.73
2023-05-10T06:10:56.431Z,98097.85
2023-05-10T06:13:23.360Z,98099.19
2023-05-10T06:15:50.212Z,98100.13
2023-05-10T06:18:17.083Z,98103.52
2023-05-10T06:20:44.102Z,98100.29
2023-05-10T06:23:11.170Z,98103.18
2023-05-10T06:25:37.967Z,98104.30
2023-05-10T06:28:05.183Z,98102.45
2023-05-10T06:30:32.026Z,98100.23
2023-05-10T06:32:59.076Z,98100.22
2023-05-10T06:35:26.739Z,98097.03
2023-05-10T06:37:54.155Z,98099.20
2023-05-10T06:40:21.040Z,98098.58
2023-05-10T06:42:48.770Z,98101.00
2023-05-10T06:45:16.804Z,98101.73
2023-05-10T06:47:44.062Z,98099.88
2023-05-10T06:50:12.537Z,98100.38
2023-05-10T06:52:39.501Z,98101.58
2023-05-10T06:55:06.697Z,98098.11
2023-05-10T06:57:33.516Z,98095.84
2023-05-10T07:00:00.479Z,98096.55
2023-05-10T07:02:27.634Z,98094.31
2023-05-10T07:04:55.255Z,98101.11
2023-05-10T07:07:22.320Z,98093.66
2023-05-10T07:09:50.070Z,98091.58
2023-05-10T07:12:16.873Z,98094.24
2023-05-10T07:14:43.930Z,98090.17
2023-05-10T07:17:11.149Z,98095.16
2023-05-10T07:19:38.081Z,98095.59
2023-05-10T07:22:04.876Z,98100.40
2023-05-10T07:24:32.417Z,98100.09
2023-05-10T07:26:59.220Z,98099.13
2023-05-10T07:29:26.126Z,98097.92
2023-05-10T07:31:54.485Z,98101.94
2023-05-10T07:34:22.843Z,98103.16
2023-05-10T07:36:50.203Z,98106.31
2023-05-10T07:39:26.589Z,98107.00
2023-05-10T07:41:55.713Z,98103.67
2023-05-10T07:44:22.508Z,98102.77
2023-05-10T07:46:49.814Z,98111.02
2023-05-10T07:49:17.018Z,98107.64
2023-05-10T07:51:43.894Z,98104.58
2023-05-10T07:54:11.061Z,98106.97
2023-05-10T07:56:37.917Z,98103.24
2023-05-10T07:59:06.087Z,98104.73
2023-05-10T08:01:33.687Z,98109.11
2023-05-10T08:04:01.220Z,98100.86
2023-05-10T08:06:29.213Z,98104.48
2023-05-10T08:08:56.593Z,98098.09
2023-05-10T08:11:23.612Z,98094.67
2023-05-10T08:13:51.108Z,98107.59
2023-05-10T08:16:18.250Z,98106.13
2023-05-10T08:18:46.708Z,98106.48
2023-05-10T08:21:14.861Z,98099.53
2023-05-10T08:23:41.839Z,98099.59
2023-05-10T08:26:08.785Z,98105.89
2023-05-10T08:28:35.643Z,98102.80
2023-05-10T08:31:02.578Z,98102.71
2023-05-10T08:33:29.362Z,98104.06
2023-05-10T08:35:56.154Z,98096.77
2023-05-10T08:38:22.949Z,98101.48
2023-05-10T08:40:50.330Z,98099.70
2023-05-10T08:43:17.448Z,98101.50
2023-05-10T08:45:46.575Z,98101.08
2023-05-10T08:48:13.464Z,98102.14
2023-05-10T08:50:41.367Z,98105.64
2023-05-10T08:53:14.300Z,98103.59
2023-05-10T08:55:43.184Z,98102.89
2023-05-10T08:58:10.444Z,98107.81
2023-05-10T09:00:38.435Z,98110.58
2023-05-10T09:03:06.501Z,98115.08
2023-05-10T09:05:33.995Z,98118.27
2023-05-10T09:08:01.716Z,98115.93
2023-05-10T09:10:29.038Z,98112.91
2023-05-10T09:13:00.178Z,98108.30
2023-05-10T09:15:27.216Z,98107.20
2023-05-10T09:17:54.216Z,98101.40
2023-05-10T09:20:21.681Z,98098.88
2023-05-10T09:22:48.580Z,98104.91
2023-05-10T09:25:18.377Z,98101.41
2023-05-10T09:27:46.876Z,98108.14
2023-05-10T09:30:30.723Z,98104.64
2023-05-10T09:32:58.527Z,98095.89
2023-05-10T09:35:31.662Z,98094.23
2023-05-10T09:38:09.184Z,98088.73
2023-05-10T09:40:36.140Z,98097.81
2023-05-10T09:43:05.388Z,98093.55
2023-05-10T09:45:34.657Z,98083.57
2023-05-10T09:48:03.806Z,98080.45
2023-05-10T09:50:31.109Z,98081.27
2023-05-10T09:52:59.544Z,98081.59
2023-05-10T09:55:27.736Z,98071.65
2023-05-10T09:58:01.830Z,98070.48
2023-05-10T10:00:29.731Z,98075.71
2023-05-10T10:02:57.749Z,98068.15
2023-05-10T10:05:34.642Z,98077.54
2023-05-10T10:08:06.279Z,98073.54
2023-05-10T10:10:34.184Z,98067.36
2023-05-10T10:13:01.103Z,98064.95
2023-05-10T10:15:28.069Z,98063.84
2023-05-10T10:17:55.656Z,98059.89
2023-05-10T10:20:23.624Z,98064.45
2023-05-10T10:22:50.719Z,98061.54
2023-05-10T10:25:18.360Z,98067.22
2023-05-10T10:27:55.119Z,98057.36
2023-05-10T10:30:40.573Z,98053.72
2023-05-10T10:33:50.819Z,98055.00
2023-05-10T10:36:17.708Z,98043.40
2023-05-10T10:38:47.759Z,98044.88
2023-05-10T10:41:33.672Z,98047.98
2023-05-10T10:44:32.238Z,98038.76
2023-05-10T10:47:07.142Z,98031.28
2023-05-10T10:49:34.968Z,98021.35
2023-05-10T10:52:38.088Z,98028.38
2023-05-10T10:55:14.865Z,98025.35
2023-05-10T10:57:46.690Z,98024.74
2023-05-10T11:00:41.604Z,98020.96
2023-05-10T11:03:15.901Z,98018.60
2023-05-10T11:05:47.369Z,98017.02
2023-05-10T11:08:28.501Z,98023.71
2023-05-10T11:11:04.646Z,98021.34
2023-05-10T11:13:33.556Z,98013.10
2023-05-10T11:16:10.447Z,98014.27
2023-05-10T11:18:37.447Z,98011.49
2023-05-10T11:21:06.216Z,98012.77
2023-05-10T11:23:48.094Z,98012.29
2023-05-10T11:26:14.946Z,98012.98
2023-05-10T11:28:46.078Z,98013.39
2023-05-10T11:31:19.632Z,98008.96
2023-05-10T11:33:46.987Z,97998.60
2023-05-10T11:36:15.465Z,97988.09
2023-05-10T11:38:42.312Z,97988.93
2023-05-10T11:41:13.332Z,97991.33
2023-05-10T11:43:40.877Z,97994.14
2023-05-10T11:46:08.692Z,97993.52
2023-05-10T11:48:35.487Z,97994.30
2023-05-10T11:51:04.711Z,97989.05
2023-05-10T11:53:32.581Z,97982.92
2023-05-10T11:56:09.180Z,97989.55
2023-05-10T11:58:37.085Z,97987.19
2023-05-10T12:01:05.210Z,97992.09
2023-05-10T12:03:32.353Z,97989.04
2023-05-10T12:06:00.135Z,97990.02
2023-05-10T12:08:28.321Z,97984.44
2023-05-10T12:11:09.142Z,97983.73
2023-05-10T12:13:41.443Z,97988.14
2023-05-10T12:16:21.814Z,97981.88
2023-05-10T12:18:52.784Z,97977.38
2023-05-10T12:21:23.082Z,97975.83
2023-05-10T12:24:01.382Z,97977.45
2023-05-10T12:26:28.920Z,97975.14
2023-05-10T12:28:56.150Z,97972.64
2023-05-10T12:31:23.056Z,97971.68
2023-05-10T12:33:50.494Z,97971.05
2023-05-10T12:36:17.732Z,97968.65
2023-05-10T12:38:48.910Z,97965.81
2023-05-10T12:41:18.168Z,97969.40
2023-05-10T12:43:45.082Z,97960.44
2023-05-10T12:46:13.725Z,97965.20
2023-05-10T12:48:42.032Z,97965.42
2023-05-10T12:51:13.681Z,97969.78
2023-05-10T12:53:42.567Z,97963.83
2023-05-10T12:56:11.565Z,97962.67
2023-05-10T12:58:39.367Z,97957.46
2023-05-10T13:01:06.417Z,97956.70
2023-05-10T13:03:33.948Z,97955.69
2023-05-10T13:06:01.829Z,97947.92
2023-05-10T13:08:30.819Z,97947.15
2023-05-10T13:10:58.192Z,97939.08
2023-05-10T13:13:25.385Z,97938.87
2023-05-10T13:15:52.309Z,97939.92
2023-05-10T13:18:19.351Z,97944.52
2023-05-10T13:20:46.413Z,97936.85
2023-05-10T13:23:13.426Z,97934.04
2023-05-10T13:25:40.334Z,97929.92
2023-05-10T13:28:07.323Z,97932.21
2023-05-10T13:30:34.553Z,97928.33
2023-05-10T13:33:01.838Z,97927.23
2023-05-10T13:35:29.128Z,97931.27
2023-05-10T13:37:58.698Z,97927.66
2023-05-10T13:40:25.729Z,97919.19
2023-05-10T13:42:52.661Z,97923.45
2023-05-10T13:45:23.687Z,97919.60
2023-05-10T13:47:51.413Z,97920.98
2023-05-10T13:50:19.197Z,97918.51
2023-05-10T13:52:46.471Z,97918.36
2023-05-10T13:55:14.522Z,97918.27
2023-05-10T13:57:42.208Z,97917.44
2023-05-10T14:00:10.777Z,97913.38
2023-05-10T14:02:38.068Z,97908.87
2023-05-10T14:07:12.135Z,97905.74
2023-05-10T14:09:39.235Z,97901.05
2023-05-10T14:12:06.074Z,97904.85
2023-05-10T14:14:32.860Z,97904.14
2023-05-10T14:16:59.748Z,97902.68
2023-05-10T14:19:27.665Z,97897.58
2023-05-10T14:21:54.613Z,97898.60
2023-05-10T14:24:21.491Z,97899.24
2023-05-10T14:26:48.332Z,97898.12
2023-05-10T14:29:15.607Z,97898.66
2023-05-10T14:31:42.571Z,97898.08
2023-05-10T14:34:10.118Z,97896.14
2023-05-10T14:36:36.991Z,97888.95
2023-05-10T14:39:04.449Z,97888.14
2023-05-10T14:41:31.456Z,97891.35
2023-05-10T14:43:58.210Z,97887.11
2023-05-10T14:46:25.001Z,97883.63
2023-05-10T14:48:51.763Z,97883.72
2023-05-10T14:51:22.202Z,97879.60
2023-05-10T14:53:49.862Z,97881.34
2023-05-10T14:56:16.794Z,97883.49
2023-05-10T14:58:43.788Z,97877.89
2023-05-10T15:01:11.291Z,97876.06
2023-05-10T15:03:39.149Z,97875.05
2023-05-10T15:06:08.085Z,97868.73
2023-05-10T15:08:35.367Z,97872.05
2023-05-10T15:11:03.546Z,97869.54
2023-05-10T15:13:30.507Z,97874.23
2023-05-10T15:15:57.621Z,97876.73
2023-05-10T15:18:24.504Z,97871.70
2023-05-10T15:20:51.256Z,97874.17
2023-05-10T15:23:18.108Z,97876.48
2023-05-10T15:25:44.930Z,97877.13
2023-05-10T15:28:11.942Z,97877.48
2023-05-10T15:30:38.984Z,97880.72
2023-05-10T15:33:05.707Z,97880.19
2023-05-10T15:35:32.657Z,97877.41
2023-05-10T15:37:59.501Z,97880.10
2023-05-10T15:40:26.387Z,97879.16
2023-05-10T15:42:53.433Z,97877.67
2023-05-10T15:45:20.290Z,97877.54
2023-05-10T15:47:47.214Z,97872.56
2023-05-10T15:50:15.106Z,97872.61
2023-05-10T15:52:42.084Z,97872.19
2023-05-10T15:55:12.174Z,97872.00
2023-05-10T15:57:40.693Z,97872.70
2023-05-10T16:00:11.711Z,97867.44
2023-05-10T16:02:41.680Z,97870.23
2023-05-10T16:05:09.235Z,97866.39
2023-05-10T16:07:37.622Z,97866.44
2023-05-10T16:10:05.975Z,97869.83
2023-05-10T16:12:32.945Z,97869.45
2023-05-10T16:14:59.758Z,97869.08
2023-05-10T16:17:26.647Z,97866.94
2023-05-10T16:19:53.612Z,97866.03
2023-05-10T16:22:21.698Z,97867.80
2023-05-10T16:24:49.234Z,97863.56
2023-05-10T16:27:17.227Z,97864.54
2023-05-10T16:29:44.219Z,97870.30
2023-05-10T16:32:11.541Z,97867.21
2023-05-10T16:34:38.862Z,97868.95
2023-05-10T16:37:05.868Z,97868.15
2023-05-10T16:39:32.704Z,97868.58
2023-05-10T16:42:00.504Z,97871.21
2023-05-10T16:44:27.876Z,97872.05
2023-05-10T16:46:55.179Z,97869.37
2023-05-10T16:49:23.745Z,97871.61
2023-05-10T16:51:53.206Z,97874.27
2023-05-10T16:54:21.422Z,97872.86
2023-05-10T16:56:48.147Z,97876.18
2023-05-10T16:59:15.787Z,97878.96
2023-05-10T17:01:42.961Z,97878.78
2023-05-10T17:04:09.735Z,97877.83
2023-05-10T17:06:38.347Z,97882.46
2023-05-10T17:09:05.612Z,97881.52
2023-05-10T17:11:32.693Z,97886.79
2023-05-10T17:14:00.870Z,97886.84
2023-05-10T17:16:29.110Z,97891.63
2023-05-10T17:18:56.166Z,97893.27
2023-05-10T17:21:22.879Z,97895.02
2023-05-10T17:23:50.130Z,97893.96
2023-05-10T17:26:16.908Z,97890.42
2023-05-10T17:28:43.670Z,97895.12
2023-05-10T17:31:11.154Z,97900.79
2023-05-10T17:33:38.102Z,97905.13
2023-05-10T17:36:05.011Z,97905.16
2023-05-10T17:38:32.015Z,97905.40
2023-05-10T17:40:58.717Z,97906.54
2023-05-10T17:43:25.691Z,97910.40
2023-05-10T17:45:52.409Z,97910.32
2023-05-10T17:48:19.211Z,97912.86
2023-05-10T17:50:51.547Z,97914.15
2023-05-10T17:53:19.384Z,97914.05
2023-05-10T17:55:46.432Z,97917.10
2023-05-10T17:58:14.835Z,97922.41
2023-05-10T18:00:41.746Z,97925.90
2023-05-10T18:03:08.493Z,97928.89
2023-05-10T18:05:36.815Z,97931.64
2023-05-10T18:08:04.774Z,97929.80
2023-05-10T18:10:31.679Z,97937.23
2023-05-10T18:13:00.178Z,97935.64
2023-05-10T18:15:27.454Z,97938.15
2023-05-10T18:17:56.062Z,97944.08
2023-05-10T18:20:23.442Z,97947.67
2023-05-10T18:22:50.551Z,97951.70
2023-05-10T18:25:18.408Z,97954.09
2023-05-10T18:27:46.689Z,97955.20
2023-05-10T18:30:13.968Z,97957.34
2023-05-10T18:32:42.289Z,97959.65
2023-05-10T18:35:09.384Z,97963.20
2023-05-10T18:37:37.314Z,97962.66
2023-05-10T18:40:09.050Z,97959.60
2023-05-10T18:42:36.041Z,97967.13
2023-05-10T18:45:03.433Z,97968.61
2023-05-10T18:47:32.600Z,97967.29
2023-05-10T18:49:59.394Z,97970.58
2023-05-10T18:52:26.248Z,97971.56
2023-05-10T18:54:53.220Z,97974.27
2023-05-10T18:57:22.109Z,97976.02
2023-05-10T18:59:49.059Z,97973.22
2023-05-10T19:02:15.883Z,97979.30
2023-05-10T19:04:43.415Z,97976.31
2023-05-10T19:07:10.700Z,97979.67
2023-05-10T19:09:37.623Z,97981.77
2023-05-10T19:12:05.880Z,97983.60
2023-05-10T19:14:33.198Z,97983.36
2023-05-10T19:17:01.659Z,97986.83
2023-05-10T19:19:32.218Z,97985.73
2023-05-10T19:21:59.168Z,97987.17
2023-05-10T19:24:26.624Z,97985.09
2023-05-10T19:26:55.334Z,97987.28
2023-05-10T19:29:22.721Z,97984.19
2023-05-10T19:32:00.011Z,97988.17
2023-05-10T19:34:34.516Z,97990.73
2023-05-10T19:37:01.087Z,97992.42
2023-05-10T19:39:28.049Z,97989.24
2023-05-10T19:41:55.224Z,97989.77
2023-05-10T19:44:21.783Z,97990.22
2023-05-10T19:46:48.555Z,97988.98
2023-05-10T19:49:16.922Z,97986.83
2023-05-10T19:51:43.964Z,97985.35
2023-05-10T19:54:10.835Z,97987.91
2023-05-10T19:56:37.605Z,97987.77
2023-05-10T19:59:06.092Z,97991.17
2023-05-10T20:01:33.437Z,97993.36
2023-05-10T20:04:00.337Z,97995.44
2023-05-10T20:06:27.135Z,97993.04
2023-05-10T20:08:53.798Z,97994.77
2023-05-10T20:11:21.161Z,97998.42
2023-05-10T20:13:47.732Z,97994.89
2023-05-10T20:16:14.564Z,97995.37
2023-05-10T20:18:42.349Z,97992.02
2023-05-10T20:21:09.218Z,97992.30
2023-05-10T20:23:36.670Z,97991.10
2023-05-10T20:26:03.534Z,97989.39
2023-05-10T20:28:30.507Z,97987.48
2023-05-10T20:30:57.415Z,97989.22
2023-05-10T20:33:24.463Z,97990.36
2023-05-10T20:35:51.747Z,97988.28
2023-05-10T20:38:18.624Z,97987.45
2023-05-10T20:40:45.876Z,97988.00
2023-05-10T20:43:12.528Z,97985.38
2023-05-10T20:45:39.177Z,97984.66
2023-05-10T20:48:05.879Z,97984.30
2023-05-10T20:50:32.970Z,97982.79
2023-05-10T20:53:00.369Z,97985.91
2023-05-10T20:55:27.604Z,97984.10
2023-05-10T20:57:54.432Z,97986.21
2023-05-10T21:00:21.123Z,97983.99
2023-05-10T21:02:48.535Z,97983.16
2023-05-10T21:05:17.077Z,97988.59
2023-05-10T21:07:44.348Z,97988.35
2023-05-10T21:10:11.047Z,97991.76
2023-05-10T21:12:37.949Z,97990.29
2023-05-10T21:15:05.251Z,97992.42
2023-05-10T21:17:32.845Z,97991.59
2023-05-10T21:19:59.672Z,97993.10
2023-05-10T21:22:26.438Z,97992.44
2023-05-10T21:24:53.331Z,97990.91
2023-05-10T21:27:20.079Z,97991.59
2023-05-10T21:29:46.737Z,97991.05
2023-05-10T21:32:14.488Z,97986.64
2023-05-10T21:34:41.376Z,97989.10
2023-05-10T21:37:08.416Z,97985.58
2023-05-10T21:39:35.781Z,97986.02
2023-05-10T21:42:02.971Z,97984.39
2023-05-10T21:44:30.862Z,97982.02
2023-05-10T21:46:57.770Z,97979.30
2023-05-10T21:49:24.626Z,97984.04
2023-05-10T21:51:51.632Z,97985.71
2023-05-10T21:54:18.454Z,97983.13
2023-05-10T21:56:45.236Z,97983.34
2023-05-10T21:59:12.043Z,97985.81
2023-05-10T22:01:38.981Z,97983.91
2023-05-10T22:04:05.764Z,97986.65
2023-05-10T22:06:32.535Z,97983.94
2023-05-10T22:08:59.266Z,97985.09
2023-05-10T22:11:26.850Z,97979.42
2023-05-10T22:13:53.993Z,97980.73
2023-05-10T22:16:20.805Z,97978.65
2023-05-10T22:18:47.780Z,97979.59
2023-05-10T22:21:14.696Z,97977.16
2023-05-10T22:23:41.441Z,97978.22
2023-05-10T22:26:08.104Z,97975.80
2023-05-10T22:28:34.835Z,97977.89
2023-05-10T22:31:01.560Z,97979.38
2023-05-10T22:33:28.482Z,97980.56
2023-05-10T22:35:55.449Z,97977.27
2023-05-10T22:38:22.489Z,97979.45
2023-05-10T22:40:49.643Z,97982.05
2023-05-10T22:43:17.333Z,97983.00
2023-05-10T22:45:44.037Z,97981.23
2023-05-10T22:48:10.828Z,97981.72
2023-05-10T22:50:37.916Z,97977.38
2023-05-10T22:53:04.602Z,97974.64
2023-05-10T22:55:31.477Z,97973.98
2023-05-10T22:57:58.369Z,97974.08
2023-05-10T23:00:24.978Z,97976.41
2023-05-10T23:02:52.264Z,97974.46
2023-05-10T23:05:18.940Z,97972.27
2023-05-10T23:07:52.276Z,97970.25
2023-05-10T23:10:19.567Z,97969.33
2023-05-10T23:12:47.109Z,97968.14
2023-05-10T23:15:13.954Z,97971.02
2023-05-10T23:17:40.922Z,97968.30
2023-05-10T23:20:08.156Z,97964.35
2023-05-10T23:22:35.273Z,97965.09
2023-05-10T23:25:02.452Z,97966.02
2023-05-10T23:27:29.973Z,97970.29
2023-05-10T23:29:57.391Z,97968.83
2023-05-10T23:32:24.061Z,97967.95
2023-05-10T23:34:50.784Z,97967.88
2023-05-10T23:37:17.490Z,97965.90
2023-05-10T23:39:44.325Z,97964.94
2023-05-10T23:42:11.030Z,97964.48
2023-05-10T23:44:37.758Z,97967.29
2023-05-10T23:47:05.433Z,97965.54
2023-05-10T23:49:33.432Z,97965.58
2023-05-10T23:52:00.599Z,97963.04
2023-05-10T23:54:27.888Z,97968.50
2023-05-10T23:56:54.615Z,97966.84
2023-05-10T23:59:21.208Z,97967.62
